createdAt,value
2023-12-12T00:05:40.585Z,1.20
2023-12-12T00:15:43.796Z,1.20
2023-12-12T00:25:48.373Z,1.20
2023-12-12T00:35:51.619Z,0.90
2023-12-12T00:45:56.295Z,0.90
2023-12-12T00:55:59.584Z,1.27
2023-12-12T01:06:04.397Z,0.70
2023-12-12T01:16:08.199Z,0.70
2023-12-12T01:26:12.809Z,1.00
2023-12-12T01:36:16.219Z,0.80
2023-12-12T01:46:22.312Z,0.70
2023-12-12T01:56:25.662Z,0.70
2023-12-12T02:06:30.709Z,0.60
2023-12-12T02:16:34.035Z,0.70
2023-12-12T02:26:38.801Z,0.60
2023-12-12T02:36:42.039Z,0.60
2023-12-12T02:46:46.755Z,0.60
2023-12-12T02:56:50.102Z,0.60
2023-12-12T03:06:54.729Z,0.70
2023-12-12T03:16:58.181Z,0.60
2023-12-12T03:27:02.831Z,0.70
2023-12-12T03:37:07.040Z,0.50
2023-12-12T03:47:11.714Z,0.80
2023-12-12T03:57:14.938Z,0.70
2023-12-12T04:07:20.545Z,0.60
2023-12-12T04:17:23.894Z,0.40
2023-12-12T04:27:28.630Z,0.73
2023-12-12T04:37:32.125Z,0.60
2023-12-12T04:47:37.734Z,0.60
2023-12-12T04:57:41.810Z,0.63
2023-12-12T05:07:46.559Z,0.60
2023-12-12T05:17:49.929Z,0.67
2023-12-12T05:27:54.706Z,0.57
2023-12-12T05:37:58.007Z,0.70
2023-12-12T05:48:04.511Z,0.67
2023-12-12T05:58:08.146Z,0.60
2023-12-12T06:08:13.136Z,0.60
2023-12-12T06:18:16.506Z,0.60
2023-12-12T06:28:21.185Z,0.80
2023-12-12T06:38:24.569Z,0.70
2023-12-12T06:48:29.305Z,0.87
2023-12-12T06:58:32.609Z,0.87
2023-12-12T07:08:37.616Z,1.00
2023-12-12T07:18:41.564Z,1.37
2023-12-12T07:28:47.904Z,1.63
2023-12-12T07:38:52.723Z,1.30
2023-12-12T07:48:57.546Z,1.87
2023-12-12T07:59:00.961Z,1.50
2023-12-12T08:09:06.171Z,1.20
2023-12-12T08:19:10.987Z,1.50
2023-12-12T08:29:16.566Z,1.60
2023-12-12T08:39:19.825Z,1.53
2023-12-12T08:49:24.439Z,1.77
2023-12-12T08:59:27.662Z,1.33
2023-12-12T09:09:33.133Z,1.30
2023-12-12T09:19:37.108Z,1.60
2023-12-12T09:29:43.704Z,1.53
2023-12-12T09:39:46.908Z,1.77
2023-12-12T09:49:53.197Z,1.50
2023-12-12T09:59:56.752Z,1.50
2023-12-12T10:10:05.422Z,1.87
2023-12-12T10:20:11.531Z,1.33
2023-12-12T10:30:16.918Z,1.50
2023-12-12T10:40:23.058Z,1.70
2023-12-12T10:50:32.615Z,1.50
2023-12-12T11:00:37.451Z,1.47
2023-12-12T11:10:42.103Z,1.33
2023-12-12T11:20:45.385Z,2.10
2023-12-12T11:30:50.038Z,1.80
2023-12-12T11:41:10.293Z,1.90
2023-12-12T11:51:50.853Z,1.90
2023-12-12T12:01:55.102Z,1.90
2023-12-12T12:11:59.712Z,2.00
2023-12-12T12:22:04.746Z,1.87
2023-12-12T12:32:18.797Z,1.60
2023-12-12T12:42:22.080Z,2.03
2023-12-12T12:52:26.748Z,2.20
2023-12-12T13:02:30.368Z,2.70
2023-12-12T13:12:35.055Z,2.00
2023-12-12T13:22:42.859Z,2.23
2023-12-12T13:32:48.229Z,2.20
2023-12-12T13:42:51.549Z,1.90
2023-12-12T13:52:56.155Z,1.90
2023-12-12T14:03:00.566Z,2.27
2023-12-12T14:13:06.282Z,1.90
2023-12-12T14:23:11.735Z,2.20
2023-12-12T14:33:18.959Z,2.03
2023-12-12T14:43:22.339Z,2.27
2023-12-12T14:53:27.102Z,2.40
2023-12-12T15:03:30.328Z,2.50
2023-12-12T15:13:35.010Z,1.00
2023-12-12T15:23:38.380Z,0.43
2023-12-12T15:33:43.148Z,0.40
2023-12-12T15:43:47.593Z,0.30
2023-12-12T15:53:52.198Z,0.40
2023-12-12T16:03:59.163Z,0.47
2023-12-12T16:14:04.883Z,0.50
2023-12-12T16:24:08.824Z,0.50
2023-12-12T16:34:14.050Z,0.30
2023-12-12T16:44:18.645Z,0.40
2023-12-12T16:54:23.279Z,0.60
2023-12-12T17:04:28.816Z,0.70
2023-12-12T17:14:34.361Z,0.97
2023-12-12T17:24:38.748Z,0.90
2023-12-12T17:34:45.174Z,0.60
2023-12-12T17:44:49.813Z,0.80
2023-12-12T17:54:56.048Z,1.03
2023-12-12T18:05:00.758Z,6.00
2023-12-12T18:15:06.490Z,3.30
2023-12-12T18:25:11.285Z,1.40
2023-12-12T18:35:16.366Z,4.20
2023-12-12T18:45:20.037Z,0.60
2023-12-12T18:55:25.326Z,0.87
2023-12-12T19:05:29.010Z,0.50
2023-12-12T19:15:34.156Z,0.93
2023-12-12T19:25:37.928Z,0.60
2023-12-12T19:35:45.856Z,1.03
2023-12-12T19:45:53.529Z,1.00
2023-12-12T19:56:08.240Z,0.63
2023-12-12T20:06:15.006Z,0.60
2023-12-12T20:16:24.259Z,0.80
2023-12-12T20:26:29.041Z,0.60
2023-12-12T20:36:37.778Z,0.50
2023-12-12T20:46:42.373Z,0.90
2023-12-12T20:56:48.499Z,0.77
2023-12-12T21:06:52.206Z,0.90
2023-12-12T21:16:59.117Z,0.53
2023-12-12T21:27:02.728Z,0.70
2023-12-12T21:37:08.610Z,0.60
2023-12-12T21:47:11.953Z,0.50
2023-12-12T21:57:16.938Z,0.40
2023-12-12T22:07:20.191Z,0.30
2023-12-12T22:17:25.464Z,0.23
2023-12-12T22:27:30.482Z,0.37
2023-12-12T22:37:35.733Z,0.20
2023-12-12T22:47:39.302Z,0.20
2023-12-12T22:57:43.893Z,0.40
2023-12-12T23:07:47.784Z,0.20
2023-12-12T23:17:52.400Z,0.30
2023-12-12T23:27:55.699Z,0.30
2023-12-12T23:38:00.426Z,0.40
2023-12-12T23:48:03.706Z,0.50
2023-12-12T23:58:08.322Z,0.40
